createdAt,value
2017-12-20T00:02:09.550Z,83.90
2017-12-20T00:04:37.403Z,83.80
2017-12-20T00:07:05.231Z,83.90
2017-12-20T00:09:32.665Z,83.70
2017-12-20T00:12:00.277Z,83.60
2017-12-20T00:14:28.449Z,83.60
2017-12-20T00:16:55.911Z,83.50
2017-12-20T00:19:23.407Z,83.60
2017-12-20T00:21:50.857Z,83.70
2017-12-20T00:24:19.808Z,83.30
2017-12-20T00:26:47.489Z,83.30
2017-12-20T00:29:15.237Z,83.40
2017-12-20T00:31:42.696Z,83.00
2017-12-20T00:34:10.166Z,82.90
2017-12-20T00:36:37.604Z,83.30
2017-12-20T00:39:05.082Z,83.50
2017-12-20T00:41:33.446Z,83.50
2017-12-20T00:44:01.148Z,83.50
2017-12-20T00:46:29.903Z,83.20
2017-12-20T00:48:58.048Z,83.10
2017-12-20T00:51:25.536Z,82.80
2017-12-20T00:53:53.553Z,82.80
2017-12-20T00:56:21.020Z,82.70
2017-12-20T00:58:48.505Z,82.70
2017-12-20T01:01:16.469Z,82.70
2017-12-20T01:03:43.917Z,82.80
2017-12-20T01:06:11.957Z,82.90
2017-12-20T01:08:39.424Z,83.00
2017-12-20T01:11:07.016Z,83.00
2017-12-20T01:13:35.184Z,83.00
2017-12-20T01:16:02.665Z,82.70
2017-12-20T01:18:30.138Z,82.90
2017-12-20T01:20:58.344Z,82.80
2017-12-20T01:23:25.902Z,82.80
2017-12-20T01:25:53.614Z,82.60
2017-12-20T01:28:21.049Z,82.90
2017-12-20T01:30:49.239Z,82.80
2017-12-20T01:33:16.669Z,82.70
2017-12-20T01:35:44.519Z,82.70
2017-12-20T01:38:11.944Z,82.60
2017-12-20T01:40:39.608Z,82.60
2017-12-20T01:43:07.910Z,82.50
2017-12-20T01:45:36.138Z,82.50
2017-12-20T01:48:04.197Z,82.50
2017-12-20T01:50:31.643Z,82.40
2017-12-20T01:52:59.109Z,83.00
2017-12-20T01:55:27.073Z,82.90
2017-12-20T01:57:54.544Z,82.90
2017-12-20T02:00:21.984Z,83.20
2017-12-20T02:02:49.433Z,83.90
2017-12-20T02:05:17.066Z,83.50
2017-12-20T02:07:44.521Z,83.90
2017-12-20T02:10:11.975Z,84.40
2017-12-20T02:12:39.418Z,83.50
2017-12-20T02:15:07.268Z,83.30
2017-12-20T02:17:35.473Z,83.50
2017-12-20T02:20:02.947Z,83.50
2017-12-20T02:22:30.392Z,83.80
2017-12-20T02:24:58.406Z,83.90
2017-12-20T02:27:25.850Z,83.60
2017-12-20T02:29:53.720Z,83.30
2017-12-20T02:32:21.167Z,83.30
2017-12-20T02:34:48.632Z,83.20
2017-12-20T02:37:16.150Z,82.90
2017-12-20T02:39:43.707Z,82.70
2017-12-20T02:42:18.364Z,82.70
2017-12-20T02:44:45.844Z,83.00
2017-12-20T02:47:13.654Z,82.70
2017-12-20T02:49:41.189Z,82.80
2017-12-20T02:52:08.932Z,82.60
2017-12-20T02:54:36.373Z,82.40
2017-12-20T02:57:03.916Z,82.10
2017-12-20T02:59:31.361Z,82.30
2017-12-20T03:01:58.843Z,82.40
2017-12-20T03:04:26.327Z,82.20
2017-12-20T03:06:54.640Z,82.30
2017-12-20T03:09:22.093Z,82.20
2017-12-20T03:11:49.690Z,82.40
2017-12-20T03:14:18.671Z,82.60
2017-12-20T03:16:46.113Z,82.70
2017-12-20T03:19:14.581Z,83.00
2017-12-20T03:21:42.284Z,83.00
2017-12-20T03:24:10.348Z,83.20
2017-12-20T03:26:37.824Z,83.30
2017-12-20T03:29:06.493Z,83.50
2017-12-20T03:31:33.957Z,83.50
2017-12-20T03:34:01.489Z,83.60
2017-12-20T03:36:29.217Z,83.50
2017-12-20T03:38:56.665Z,83.70
2017-12-20T03:41:24.925Z,83.60
2017-12-20T03:43:53.243Z,83.50
2017-12-20T03:46:21.255Z,83.50
2017-12-20T03:48:49.008Z,83.40
2017-12-20T03:51:16.468Z,83.50
2017-12-20T03:53:43.907Z,83.60
2017-12-20T03:56:11.394Z,83.10
2017-12-20T03:58:38.831Z,82.90
2017-12-20T04:01:06.367Z,82.70
2017-12-20T04:03:33.916Z,82.80
2017-12-20T04:06:01.417Z,83.00
2017-12-20T04:08:29.002Z,83.10
2017-12-20T04:10:57.620Z,83.20
2017-12-20T04:13:25.282Z,83.20
2017-12-20T04:15:53.182Z,84.00
2017-12-20T04:18:20.704Z,83.50
2017-12-20T04:20:48.501Z,83.50
2017-12-20T04:23:16.004Z,83.80
2017-12-20T04:25:44.950Z,83.60
2017-12-20T04:28:13.197Z,84.10
2017-12-20T04:30:41.160Z,83.40
2017-12-20T04:33:08.614Z,83.40
2017-12-20T04:35:36.277Z,83.40
2017-12-20T04:38:03.974Z,83.50
2017-12-20T04:40:31.451Z,83.40
2017-12-20T04:42:58.917Z,83.60
2017-12-20T04:45:27.128Z,84.00
2017-12-20T04:47:55.044Z,83.90
2017-12-20T04:50:22.506Z,84.00
2017-12-20T04:52:50.001Z,83.90
2017-12-20T04:55:17.474Z,83.50
2017-12-20T04:57:44.943Z,83.70
2017-12-20T05:00:13.568Z,83.60
2017-12-20T05:02:41.777Z,83.50
2017-12-20T05:05:09.690Z,83.50
2017-12-20T05:07:37.165Z,83.40
2017-12-20T05:10:05.395Z,83.30
2017-12-20T05:12:32.879Z,83.30
2017-12-20T05:15:00.933Z,83.10
2017-12-20T05:17:28.859Z,83.40
2017-12-20T05:19:56.325Z,83.20
2017-12-20T05:22:23.769Z,83.20
2017-12-20T05:24:51.682Z,83.20
2017-12-20T05:27:19.166Z,83.10
2017-12-20T05:29:47.924Z,83.80
2017-12-20T05:32:15.412Z,83.10
2017-12-20T05:34:43.627Z,83.20
2017-12-20T05:37:11.124Z,83.10
2017-12-20T05:39:38.620Z,83.10
2017-12-20T05:42:06.917Z,83.20
2017-12-20T05:44:34.353Z,83.60
2017-12-20T05:47:03.203Z,84.00
2017-12-20T05:49:30.644Z,84.00
2017-12-20T05:51:58.283Z,84.00
2017-12-20T05:54:25.837Z,84.10
2017-12-20T05:56:53.516Z,84.00
2017-12-20T05:59:21.045Z,83.90
2017-12-20T06:01:48.876Z,83.90
2017-12-20T06:04:16.378Z,84.00
2017-12-20T06:06:43.835Z,83.90
2017-12-20T06:09:12.038Z,84.00
2017-12-20T06:11:39.508Z,84.00
2017-12-20T06:14:07.569Z,83.90
2017-12-20T06:16:35.037Z,83.90
2017-12-20T06:19:03.262Z,83.80
2017-12-20T06:21:30.725Z,83.60
2017-12-20T06:23:58.589Z,83.60
2017-12-20T06:26:26.585Z,83.80
2017-12-20T06:28:54.734Z,83.80
2017-12-20T06:31:22.193Z,83.80
2017-12-20T06:33:49.646Z,83.60
2017-12-20T06:36:17.114Z,83.40
2017-12-20T06:38:45.479Z,83.50
2017-12-20T06:41:14.159Z,83.80
2017-12-20T06:43:41.865Z,83.80
2017-12-20T06:46:10.055Z,83.80
2017-12-20T06:48:37.897Z,83.80
2017-12-20T06:51:05.877Z,84.10
2017-12-20T06:53:33.391Z,83.60
2017-12-20T06:56:00.819Z,83.60
2017-12-20T06:58:29.150Z,83.30
2017-12-20T07:00:56.606Z,83.30
2017-12-20T07:03:24.069Z,83.00
2017-12-20T07:05:52.161Z,83.10
2017-12-20T07:08:20.105Z,83.10
2017-12-20T07:10:47.545Z,83.20
2017-12-20T07:13:15.461Z,83.00
2017-12-20T07:15:44.117Z,83.00
2017-12-20T07:18:11.693Z,82.90
2017-12-20T07:20:39.141Z,82.70
2017-12-20T07:23:06.582Z,82.60
2017-12-20T07:25:34.536Z,82.70
2017-12-20T07:28:02.033Z,83.30
2017-12-20T07:30:29.874Z,83.00
2017-12-20T07:32:57.312Z,83.10
2017-12-20T07:37:55.860Z,82.60
2017-12-20T07:40:24.102Z,82.80
2017-12-20T07:42:51.542Z,82.90
2017-12-20T07:45:19.145Z,83.00
2017-12-20T07:47:47.316Z,82.90
2017-12-20T07:50:15.373Z,82.90
2017-12-20T07:52:42.828Z,83.00
2017-12-20T07:55:10.286Z,83.00
2017-12-20T07:57:37.812Z,83.20
2017-12-20T08:00:05.248Z,83.00
2017-12-20T08:02:32.838Z,83.10
2017-12-20T08:05:00.468Z,83.00
2017-12-20T08:07:28.282Z,83.00
2017-12-20T08:09:56.181Z,83.10
2017-12-20T08:12:24.421Z,83.30
2017-12-20T08:14:52.357Z,83.30
2017-12-20T08:17:19.816Z,83.20
2017-12-20T08:19:47.285Z,83.00
2017-12-20T08:22:14.729Z,82.90
2017-12-20T08:24:42.762Z,82.70
2017-12-20T08:27:11.009Z,82.60
2017-12-20T08:29:39.122Z,82.60
2017-12-20T08:32:07.567Z,82.80
2017-12-20T08:34:35.063Z,82.80
2017-12-20T08:37:02.507Z,82.70
2017-12-20T08:39:30.843Z,82.60
2017-12-20T08:41:58.935Z,82.50
2017-12-20T08:44:26.402Z,82.30
2017-12-20T08:46:54.621Z,82.30
2017-12-20T08:49:22.775Z,82.20
2017-12-20T08:51:51.009Z,82.40
2017-12-20T08:54:18.507Z,82.30
2017-12-20T08:56:46.078Z,82.30
2017-12-20T08:59:13.637Z,82.40
2017-12-20T09:01:41.639Z,82.60
2017-12-20T09:04:09.130Z,82.60
2017-12-20T09:06:37.475Z,82.60
2017-12-20T09:09:05.652Z,82.60
2017-12-20T09:11:33.098Z,82.60
2017-12-20T09:14:01.073Z,82.40
2017-12-20T09:16:28.517Z,82.40
2017-12-20T09:18:55.978Z,82.40
2017-12-20T09:21:23.453Z,82.20
2017-12-20T09:23:50.897Z,82.40
2017-12-20T09:26:18.667Z,82.60
2017-12-20T09:28:46.937Z,82.70
2017-12-20T09:31:15.517Z,82.70
2017-12-20T09:33:42.969Z,82.40
2017-12-20T09:36:10.445Z,82.20
2017-12-20T09:38:37.994Z,82.30
2017-12-20T09:41:05.552Z,82.50
2017-12-20T09:43:32.996Z,82.30
2017-12-20T09:46:00.478Z,82.30
2017-12-20T09:48:28.248Z,82.30
2017-12-20T09:50:55.753Z,82.50
2017-12-20T09:53:23.625Z,82.30
2017-12-20T09:55:51.122Z,82.70
2017-12-20T09:58:18.977Z,82.70
2017-12-20T10:00:46.845Z,82.80
2017-12-20T10:03:14.366Z,82.70
2017-12-20T10:05:41.826Z,82.60
2017-12-20T10:08:09.313Z,82.50
2017-12-20T10:10:37.279Z,82.80
2017-12-20T10:13:04.788Z,83.00
2017-12-20T10:15:32.604Z,83.00
2017-12-20T10:18:00.046Z,83.30
2017-12-20T10:20:28.138Z,83.60
2017-12-20T10:22:55.620Z,83.80
2017-12-20T10:25:24.273Z,83.50
2017-12-20T10:27:51.741Z,83.50
2017-12-20T10:30:19.588Z,83.60
2017-12-20T10:32:47.052Z,83.50
2017-12-20T10:35:15.910Z,83.30
2017-12-20T10:37:43.384Z,83.00
2017-12-20T10:40:12.025Z,83.10
2017-12-20T10:42:39.464Z,83.20
2017-12-20T10:45:07.677Z,83.60
2017-12-20T10:47:35.694Z,83.40
2017-12-20T10:50:03.558Z,83.50
2017-12-20T10:52:31.023Z,83.50
2017-12-20T10:54:58.481Z,83.40
2017-12-20T10:57:25.987Z,83.30
2017-12-20T10:59:54.280Z,83.00
2017-12-20T11:02:21.732Z,83.10
2017-12-20T11:04:49.209Z,83.40
2017-12-20T11:07:16.681Z,83.20
2017-12-20T11:09:44.533Z,83.40
2017-12-20T11:12:11.974Z,83.80
2017-12-20T11:14:39.966Z,83.90
2017-12-20T11:17:08.196Z,84.30
2017-12-20T11:19:36.308Z,84.20
2017-12-20T11:22:03.801Z,84.00
2017-12-20T11:24:32.390Z,84.60
2017-12-20T11:26:59.836Z,84.60
2017-12-20T11:29:28.798Z,84.40
2017-12-20T11:31:56.282Z,84.30
2017-12-20T11:34:24.511Z,84.30
2017-12-20T11:36:52.408Z,84.20
2017-12-20T11:39:19.848Z,84.20
2017-12-20T11:41:47.509Z,83.70
2017-12-20T11:44:14.954Z,83.90
2017-12-20T11:46:42.401Z,83.60
2017-12-20T11:49:10.287Z,83.30
2017-12-20T11:51:37.748Z,83.50
2017-12-20T11:54:05.197Z,83.40
2017-12-20T11:56:32.796Z,83.50
2017-12-20T11:59:01.200Z,83.80
2017-12-20T12:01:28.694Z,83.80
2017-12-20T12:03:56.134Z,83.40
2017-12-20T12:06:23.676Z,83.20
2017-12-20T12:08:51.678Z,83.30
2017-12-20T12:11:19.148Z,83.50
2017-12-20T12:13:48.244Z,83.30
2017-12-20T12:16:15.729Z,83.10
2017-12-20T12:18:44.577Z,84.30
2017-12-20T12:21:12.362Z,83.70
2017-12-20T12:23:39.797Z,84.00
2017-12-20T12:26:07.786Z,83.30
2017-12-20T12:28:36.016Z,83.90
2017-12-20T12:31:04.313Z,83.90
2017-12-20T12:33:31.788Z,83.80
2017-12-20T12:35:59.346Z,83.60
2017-12-20T12:38:26.955Z,83.90
2017-12-20T12:40:54.411Z,83.70
2017-12-20T12:43:21.910Z,84.00
2017-12-20T12:45:51.954Z,83.70
2017-12-20T12:48:21.462Z,84.20
2017-12-20T12:50:50.620Z,83.70
2017-12-20T12:53:19.688Z,83.70
2017-12-20T12:55:47.172Z,83.70
2017-12-20T12:58:15.175Z,83.40
2017-12-20T13:00:45.219Z,84.50
2017-12-20T13:03:12.830Z,83.90
2017-12-20T13:05:40.796Z,83.90
2017-12-20T13:08:08.264Z,84.00
2017-12-20T13:10:36.530Z,84.10
2017-12-20T13:13:03.998Z,84.20
2017-12-20T13:15:32.681Z,84.20
2017-12-20T13:18:04.017Z,84.10
2017-12-20T13:20:31.456Z,84.10
2017-12-20T13:22:58.921Z,84.20
2017-12-20T13:25:26.700Z,84.40
2017-12-20T13:27:54.685Z,84.30
2017-12-20T13:30:24.001Z,84.60
2017-12-20T13:32:51.499Z,84.60
2017-12-20T13:35:18.946Z,84.40
2017-12-20T13:37:46.829Z,84.50
2017-12-20T13:40:14.324Z,84.60
2017-12-20T13:42:41.773Z,84.90
2017-12-20T13:45:10.018Z,84.80
2017-12-20T13:47:37.856Z,84.80
2017-12-20T13:50:05.325Z,84.80
2017-12-20T13:52:32.799Z,84.60
2017-12-20T13:55:00.366Z,84.50
2017-12-20T13:57:27.916Z,84.70
2017-12-20T13:59:55.376Z,84.60
2017-12-20T14:02:23.169Z,84.70
2017-12-20T14:04:51.769Z,84.80
2017-12-20T14:07:19.579Z,84.70
2017-12-20T14:09:47.493Z,84.60
2017-12-20T14:12:15.709Z,84.30
2017-12-20T14:14:43.689Z,84.30
2017-12-20T14:17:11.141Z,84.30
2017-12-20T14:19:38.627Z,84.30
2017-12-20T14:22:06.089Z,84.20
2017-12-20T14:24:34.954Z,83.70
2017-12-20T14:27:02.403Z,83.70
2017-12-20T14:29:30.500Z,83.70
2017-12-20T14:31:58.158Z,83.50
2017-12-20T14:34:25.683Z,83.50
2017-12-20T14:36:53.228Z,83.40
2017-12-20T14:39:20.682Z,83.20
2017-12-20T14:41:48.194Z,83.30
2017-12-20T14:44:15.676Z,83.20
2017-12-20T14:46:43.176Z,83.10
2017-12-20T14:49:11.122Z,83.20
2017-12-20T14:51:38.992Z,83.20
2017-12-20T14:54:06.437Z,83.50
2017-12-20T14:56:33.940Z,83.50
2017-12-20T14:59:01.671Z,83.70
2017-12-20T15:01:29.533Z,83.60
2017-12-20T15:03:56.987Z,83.60
2017-12-20T15:06:24.496Z,83.70
2017-12-20T15:08:52.125Z,83.90
2017-12-20T15:11:20.053Z,83.80
2017-12-20T15:13:48.183Z,83.30
2017-12-20T15:16:15.658Z,83.10
2017-12-20T15:18:43.979Z,82.80
2017-12-20T15:21:11.466Z,83.20
2017-12-20T15:23:39.508Z,83.30
2017-12-20T15:26:07.565Z,82.80
2017-12-20T15:28:34.987Z,82.80
2017-12-20T15:31:02.835Z,82.70
2017-12-20T15:33:30.294Z,82.80
2017-12-20T15:35:57.774Z,83.10
2017-12-20T15:38:26.430Z,83.20
2017-12-20T15:40:53.988Z,83.20
2017-12-20T15:43:21.434Z,83.00
2017-12-20T15:45:48.888Z,83.00
2017-12-20T15:48:17.031Z,82.90
2017-12-20T15:50:45.054Z,83.00
2017-12-20T15:53:12.500Z,82.90
2017-12-20T15:55:39.979Z,82.80
2017-12-20T15:58:08.210Z,82.90
2017-12-20T16:00:35.674Z,82.80
2017-12-20T16:03:03.828Z,82.90
2017-12-20T16:05:31.288Z,82.90
2017-12-20T16:07:59.199Z,83.00
2017-12-20T16:10:27.877Z,83.10
2017-12-20T16:12:55.802Z,83.10
2017-12-20T16:15:24.487Z,83.20
2017-12-20T16:17:51.954Z,83.20
2017-12-20T16:20:19.409Z,83.10
2017-12-20T16:22:46.921Z,83.20
2017-12-20T16:25:14.722Z,83.20
2017-12-20T16:27:42.562Z,83.30
2017-12-20T16:30:11.321Z,83.10
2017-12-20T16:32:38.832Z,83.10
2017-12-20T16:35:06.392Z,83.10
2017-12-20T16:37:33.887Z,83.30
2017-12-20T16:40:02.232Z,83.40
2017-12-20T16:42:29.863Z,83.40
2017-12-20T16:44:58.208Z,83.70
2017-12-20T16:47:26.270Z,83.60
2017-12-20T16:49:54.391Z,83.00
2017-12-20T16:52:22.032Z,82.80
2017-12-20T16:54:49.514Z,82.70
2017-12-20T16:57:16.962Z,82.70
2017-12-20T16:59:45.551Z,83.10
2017-12-20T17:02:13.009Z,83.00
2017-12-20T17:04:40.502Z,83.10
2017-12-20T17:07:07.951Z,83.20
2017-12-20T17:09:35.949Z,83.20
2017-12-20T17:12:03.925Z,83.30
2017-12-20T17:14:31.784Z,83.40
2017-12-20T17:16:59.747Z,83.50
2017-12-20T17:19:27.888Z,83.60
2017-12-20T17:21:55.656Z,83.70
2017-12-20T17:24:23.883Z,83.90
2017-12-20T17:26:51.322Z,83.80
2017-12-20T17:29:19.313Z,84.30
2017-12-20T17:31:46.769Z,83.70
2017-12-20T17:34:15.035Z,83.90
2017-12-20T17:36:43.639Z,84.00
2017-12-20T17:39:11.936Z,84.00
2017-12-20T17:41:39.497Z,84.00
2017-12-20T17:44:07.098Z,84.00
2017-12-20T17:46:34.586Z,84.00
2017-12-20T17:49:03.171Z,83.90
2017-12-20T17:51:32.059Z,83.90
2017-12-20T17:54:00.288Z,83.90
2017-12-20T17:56:27.752Z,83.80
2017-12-20T17:58:55.218Z,83.60
2017-12-20T18:01:22.666Z,83.90
2017-12-20T18:03:50.717Z,84.10
2017-12-20T18:06:18.723Z,84.00
2017-12-20T18:08:46.385Z,84.20
2017-12-20T18:11:15.886Z,84.90
2017-12-20T18:13:43.838Z,84.20
2017-12-20T18:16:11.284Z,84.10
2017-12-20T18:18:38.758Z,84.10
2017-12-20T18:21:06.193Z,84.00
2017-12-20T18:23:34.019Z,84.20
2017-12-20T18:26:01.845Z,84.40
2017-12-20T18:28:29.611Z,84.50
2017-12-20T18:30:57.679Z,84.80
2017-12-20T18:33:25.248Z,84.90
2017-12-20T18:35:52.692Z,84.80
2017-12-20T18:38:20.149Z,84.80
2017-12-20T18:40:48.034Z,84.80
2017-12-20T18:43:16.292Z,85.50
2017-12-20T18:45:43.947Z,84.80
2017-12-20T18:48:12.190Z,84.70
2017-12-20T18:50:39.582Z,84.70
2017-12-20T18:53:08.057Z,84.70
2017-12-20T18:55:36.124Z,84.60
2017-12-20T18:58:03.637Z,84.40
2017-12-20T19:00:31.213Z,84.30
2017-12-20T19:02:58.811Z,84.50
2017-12-20T19:05:26.376Z,84.50
2017-12-20T19:07:54.047Z,84.40
2017-12-20T19:10:22.095Z,84.30
2017-12-20T19:12:49.645Z,84.40
2017-12-20T19:15:17.675Z,84.70
2017-12-20T19:17:45.694Z,84.50
2017-12-20T19:20:13.172Z,84.70
2017-12-20T19:22:40.637Z,84.90
2017-12-20T19:25:09.701Z,84.80
2017-12-20T19:27:37.215Z,84.80
2017-12-20T19:30:05.237Z,84.80
2017-12-20T19:32:32.805Z,84.70
2017-12-20T19:35:00.365Z,84.60
2017-12-20T19:37:27.970Z,84.40
2017-12-20T19:39:56.069Z,84.90
2017-12-20T19:42:23.701Z,84.60
2017-12-20T19:44:51.365Z,85.00
2017-12-20T19:47:19.451Z,85.20
2017-12-20T19:49:47.753Z,85.00
2017-12-20T19:52:16.151Z,84.80
2017-12-20T19:54:43.692Z,84.80
2017-12-20T19:57:11.817Z,84.80
2017-12-20T19:59:39.634Z,84.80
2017-12-20T20:02:07.706Z,85.00
2017-12-20T20:04:35.377Z,84.90
2017-12-20T20:07:03.669Z,85.10
2017-12-20T20:09:32.377Z,85.10
2017-12-20T20:12:00.592Z,85.00
2017-12-20T20:14:28.811Z,84.90
2017-12-20T20:16:57.109Z,84.90
2017-12-20T20:19:25.222Z,85.10
2017-12-20T20:21:52.745Z,85.20
2017-12-20T20:24:21.141Z,85.30
2017-12-20T20:26:49.999Z,85.20
2017-12-20T20:29:18.311Z,85.30
2017-12-20T20:31:45.847Z,85.30
2017-12-20T20:34:13.362Z,85.30
2017-12-20T20:36:41.644Z,85.20
2017-12-20T20:39:09.533Z,85.20
2017-12-20T20:41:38.219Z,85.30
2017-12-20T20:44:05.879Z,85.30
2017-12-20T20:46:33.541Z,85.20
2017-12-20T20:49:01.656Z,85.10
2017-12-20T20:51:29.351Z,85.10
2017-12-20T20:53:57.054Z,85.10
2017-12-20T20:56:27.903Z,85.20
2017-12-20T20:58:56.486Z,85.20
2017-12-20T21:01:24.564Z,85.00
2017-12-20T21:03:52.330Z,85.20
2017-12-20T21:06:20.099Z,85.00
2017-12-20T21:08:47.714Z,85.10
2017-12-20T21:11:15.916Z,84.90
2017-12-20T21:13:44.317Z,84.90
2017-12-20T21:16:12.541Z,85.20
2017-12-20T21:18:40.098Z,85.70
2017-12-20T21:21:07.933Z,85.20
2017-12-20T21:23:36.261Z,85.40
2017-12-20T21:26:04.148Z,85.30
2017-12-20T21:28:31.620Z,85.40
2017-12-20T21:30:59.682Z,85.60
2017-12-20T21:33:27.196Z,85.50
2017-12-20T21:35:54.752Z,85.40
2017-12-20T21:38:22.226Z,85.50
2017-12-20T21:40:49.688Z,85.40
2017-12-20T21:43:17.786Z,85.50
2017-12-20T21:45:46.013Z,85.50
2017-12-20T21:48:14.007Z,85.60
2017-12-20T21:50:41.500Z,85.50
2017-12-20T21:53:09.815Z,85.70
2017-12-20T21:55:37.266Z,85.40
2017-12-20T21:58:05.091Z,85.40
2017-12-20T22:00:32.528Z,85.30
2017-12-20T22:02:59.998Z,85.60
2017-12-20T22:05:27.913Z,85.50
2017-12-20T22:07:55.371Z,85.40
2017-12-20T22:10:22.988Z,85.60
2017-12-20T22:12:50.942Z,85.80
2017-12-20T22:15:18.867Z,85.80
2017-12-20T22:17:46.324Z,86.00
2017-12-20T22:20:13.882Z,86.00
2017-12-20T22:22:41.321Z,86.00
2017-12-20T22:25:09.320Z,86.10
2017-12-20T22:27:37.051Z,86.10
2017-12-20T22:30:04.971Z,86.00
2017-12-20T22:32:32.428Z,85.90
2017-12-20T22:34:59.893Z,85.70
2017-12-20T22:37:27.831Z,85.90
2017-12-20T22:39:56.544Z,86.70
2017-12-20T22:42:24.007Z,86.00
2017-12-20T22:44:51.677Z,85.90
2017-12-20T22:47:19.694Z,85.80
2017-12-20T22:49:47.165Z,86.00
2017-12-20T22:52:14.855Z,85.90
2017-12-20T22:54:42.526Z,85.90
2017-12-20T22:57:10.027Z,85.90
2017-12-20T22:59:37.596Z,86.00
2017-12-20T23:02:05.113Z,85.80
2017-12-20T23:04:33.333Z,85.80
2017-12-20T23:07:00.859Z,85.70
2017-12-20T23:09:29.499Z,86.00
2017-12-20T23:11:57.405Z,86.50
2017-12-20T23:14:25.336Z,86.00
2017-12-20T23:16:53.078Z,86.00
2017-12-20T23:19:20.537Z,86.00
2017-12-20T23:21:48.034Z,86.00
2017-12-20T23:24:16.096Z,86.10
2017-12-20T23:26:43.542Z,86.10
2017-12-20T23:29:11.507Z,86.10
2017-12-20T23:31:39.231Z,86.10
2017-12-20T23:34:06.656Z,86.00
2017-12-20T23:36:35.539Z,85.80
2017-12-20T23:39:04.278Z,85.70
2017-12-20T23:41:32.170Z,86.00
2017-12-20T23:43:59.628Z,86.10
2017-12-20T23:46:28.988Z,86.10
2017-12-20T23:48:56.992Z,86.20
2017-12-20T23:51:25.227Z,86.10
2017-12-20T23:53:52.685Z,86.50
2017-12-20T23:56:20.174Z,86.20
2017-12-20T23:58:47.862Z,86.10
